^^
Your Local Weather - Clay, NY Station Historical Data
Daily Summary for February 16, 2017 Units:  English    Metric   Both
« Previous Day
Next Day »
Daily Weekly Monthly Yearly Custom
  High: Low: Average:
Temperature: 26.7 °F 21.9 °F 23.1 °F
Dew Point: 23.9 °F 18.2 °F 19.4 °F
Humidity: 90% 76% 86%
Wind Speed: 6.0mph 1.0mph 3.4mph
Wind Gust: 10.0mph - -
Wind- - WNW
Pressure: 29.84 in 29.52 in -
Precipitation: 0.00 in    
Historical Graphs
 
 
Tabular Data for February 16, 2017
Time Temperature Dew Point Pressure Wind Wind Speed Wind Gust Humidity Rainfall Rate (Hourly) solar
00:02 26.7 °F 23.9 °F 29.52 in WNW 4.0 mph 4.0 mph 89% 0.00 in 0 W/m2
00:08 26.5 °F 23.7 °F 29.52 in WNW 4.0 mph 4.0 mph 89% 0.00 in 0 W/m2
00:14 26.4 °F 23.6 °F 29.52 in WNW 3.0 mph 6.0 mph 89% 0.00 in 0 W/m2
00:20 26.2 °F 23.1 °F 29.52 in WNW 3.0 mph 3.0 mph 88% 0.00 in 0 W/m2
00:26 26.2 °F 23.4 °F 29.52 in WNW 3.0 mph 7.0 mph 89% 0.00 in 0 W/m2
00:32 26.0 °F 23.2 °F 29.52 in WNW 3.0 mph 4.0 mph 89% 0.00 in 0 W/m2
00:38 25.8 °F 23.0 °F 29.52 in NW 3.0 mph 4.0 mph 89% 0.00 in 0 W/m2
00:44 25.7 °F 23.2 °F 29.52 in WNW 3.0 mph 3.0 mph 90% 0.00 in 0 W/m2
00:50 25.5 °F 23.0 °F 29.52 in WNW 3.0 mph 3.0 mph 90% 0.00 in 0 W/m2
00:56 25.4 °F 22.9 °F 29.52 in WNW 2.0 mph 3.0 mph 90% 0.00 in 0 W/m2
01:02 25.3 °F 22.8 °F 29.52 in West 3.0 mph 9.0 mph 90% 0.00 in 0 W/m2
01:08 25.2 °F 22.4 °F 29.53 in WNW 4.0 mph 9.0 mph 89% 0.00 in 0 W/m2
01:14 25.1 °F 22.3 °F 29.53 in NW 3.0 mph 4.0 mph 89% 0.00 in 0 W/m2
01:20 25.0 °F 21.9 °F 29.53 in WNW 4.0 mph 4.0 mph 88% 0.00 in 0 W/m2
01:26 25.0 °F 21.9 °F 29.53 in WNW 4.0 mph 4.0 mph 88% 0.00 in 0 W/m2
01:32 24.9 °F 21.6 °F 29.53 in WNW 3.0 mph 5.0 mph 87% 0.00 in 0 W/m2
01:38 24.7 °F 21.1 °F 29.53 in NW 4.0 mph 5.0 mph 86% 0.00 in 0 W/m2
01:44 24.6 °F 21.0 °F 29.53 in West 4.0 mph 10.0 mph 86% 0.00 in 0 W/m2
01:50 24.5 °F 20.9 °F 29.53 in WSW 4.0 mph 5.0 mph 86% 0.00 in 0 W/m2
01:56 24.5 °F 20.9 °F 29.53 in WNW 4.0 mph 6.0 mph 86% 0.00 in 0 W/m2
02:02 24.4 °F 20.8 °F 29.54 in WNW 4.0 mph 4.0 mph 86% 0.00 in 0 W/m2
02:08 24.3 °F 20.7 °F 29.54 in NW 3.0 mph 5.0 mph 86% 0.00 in 0 W/m2
02:14 24.2 °F 20.3 °F 29.54 in WNW 4.0 mph 5.0 mph 85% 0.00 in 0 W/m2
02:20 24.0 °F 20.1 °F 29.54 in WNW 4.0 mph 4.0 mph 85% 0.00 in 0 W/m2
02:26 23.9 °F 20.0 °F 29.54 in WNW 4.0 mph 6.0 mph 85% 0.00 in 0 W/m2
02:32 23.8 °F 19.9 °F 29.54 in West 3.0 mph 4.0 mph 85% 0.00 in 0 W/m2
02:38 23.7 °F 20.1 °F 29.54 in WNW 3.0 mph 4.0 mph 86% 0.00 in 0 W/m2
02:44 23.6 °F 20.3 °F 29.54 in WNW 3.0 mph 4.0 mph 87% 0.00 in 0 W/m2
02:50 23.5 °F 20.2 °F 29.54 in WNW 3.0 mph 3.0 mph 87% 0.00 in 0 W/m2
02:56 23.4 °F 20.4 °F 29.54 in WNW 2.0 mph 3.0 mph 88% 0.00 in 0 W/m2
03:02 23.4 °F 20.4 °F 29.54 in WNW 2.0 mph 4.0 mph 88% 0.00 in 0 W/m2
03:08 23.3 °F 20.5 °F 29.54 in WNW 3.0 mph 4.0 mph 89% 0.00 in 0 W/m2
03:14 23.3 °F 20.5 °F 29.54 in West 2.0 mph 3.0 mph 89% 0.00 in 0 W/m2
03:20 23.3 °F 20.5 °F 29.54 in WNW 2.0 mph 4.0 mph 89% 0.00 in 0 W/m2
03:26 23.3 °F 20.5 °F 29.54 in WNW 2.0 mph 4.0 mph 89% 0.00 in 0 W/m2
03:32 23.3 °F 20.5 °F 29.54 in WNW 2.0 mph 4.0 mph 89% 0.00 in 0 W/m2
03:38 23.2 °F 20.4 °F 29.54 in NNW 2.0 mph 4.0 mph 89% 0.00 in 0 W/m2
03:44 23.2 °F 20.4 °F 29.54 in NW 2.0 mph 2.0 mph 89% 0.00 in 0 W/m2
03:50 23.1 °F 20.1 °F 29.55 in WNW 2.0 mph 3.0 mph 88% 0.00 in 0 W/m2
03:56 23.1 °F 20.1 °F 29.55 in WNW 3.0 mph 3.0 mph 88% 0.00 in 0 W/m2
04:02 23.1 °F 20.1 °F 29.55 in WNW 2.0 mph 3.0 mph 88% 0.00 in 0 W/m2
04:08 23.0 °F 20.0 °F 29.55 in West 3.0 mph 7.0 mph 88% 0.00 in 0 W/m2
04:14 23.0 °F 20.0 °F 29.55 in NW 3.0 mph 3.0 mph 88% 0.00 in 0 W/m2
04:20 22.9 °F 19.9 °F 29.56 in West 3.0 mph 4.0 mph 88% 0.00 in 0 W/m2
04:26 22.9 °F 19.9 °F 29.56 in WNW 3.0 mph 4.0 mph 88% 0.00 in 0 W/m2
04:32 22.8 °F 19.8 °F 29.56 in NW 2.0 mph 2.0 mph 88% 0.00 in 0 W/m2
04:38 22.8 °F 19.8 °F 29.56 in WNW 2.0 mph 5.0 mph 88% 0.00 in 0 W/m2
04:44 22.8 °F 19.8 °F 29.56 in WNW 2.0 mph 4.0 mph 88% 0.00 in 0 W/m2
04:50 22.8 °F 19.8 °F 29.56 in WNW 2.0 mph 2.0 mph 88% 0.00 in 0 W/m2
04:56 22.8 °F 19.8 °F 29.56 in NW 1.0 mph 2.0 mph 88% 0.00 in 0 W/m2
05:02 22.7 °F 19.7 °F 29.56 in West 3.0 mph 3.0 mph 88% 0.00 in 0 W/m2
05:08 22.7 °F 19.7 °F 29.56 in NW 3.0 mph 3.0 mph 88% 0.00 in 0 W/m2
05:14 22.6 °F 19.6 °F 29.57 in WNW 3.0 mph 3.0 mph 88% 0.00 in 0 W/m2
05:20 22.6 °F 19.8 °F 29.57 in NW 2.0 mph 2.0 mph 89% 0.00 in 0 W/m2
05:26 22.6 °F 19.8 °F 29.57 in WNW 2.0 mph 3.0 mph 89% 0.00 in 0 W/m2
05:32 22.5 °F 19.7 °F 29.57 in NW 2.0 mph 7.0 mph 89% 0.00 in 0 W/m2
05:38 22.5 °F 19.7 °F 29.57 in NW 2.0 mph 7.0 mph 89% 0.00 in 0 W/m2
05:44 22.4 °F 19.6 °F 29.57 in NW 2.0 mph 3.0 mph 89% 0.00 in 0 W/m2
05:50 22.4 °F 19.4 °F 29.58 in NW 3.0 mph 3.0 mph 88% 0.00 in 0 W/m2
05:56 22.4 °F 19.4 °F 29.58 in NW 3.0 mph 4.0 mph 88% 0.00 in 0 W/m2
06:02 22.3 °F 19.3 °F 29.58 in WNW 3.0 mph 3.0 mph 88% 0.00 in 0 W/m2
06:08 22.3 °F 19.3 °F 29.58 in WNW 2.0 mph 4.0 mph 88% 0.00 in 0 W/m2
06:14 22.3 °F 19.3 °F 29.59 in West 2.0 mph 5.0 mph 88% 0.00 in 0 W/m2
06:20 22.4 °F 19.4 °F 29.59 in WNW 3.0 mph 4.0 mph 88% 0.00 in 0 W/m2
06:26 22.4 °F 19.1 °F 29.59 in WNW 3.0 mph 4.0 mph 87% 0.00 in 0 W/m2
06:32 22.4 °F 19.4 °F 29.59 in NW 2.0 mph 2.0 mph 88% 0.00 in 0 W/m2
06:38 22.4 °F 19.4 °F 29.59 in WNW 1.0 mph 2.0 mph 88% 0.00 in 0 W/m2
06:44 22.5 °F 19.5 °F 29.59 in NW 2.0 mph 4.0 mph 88% 0.00 in 0 W/m2
06:50 22.5 °F 19.5 °F 29.59 in NW 2.0 mph 2.0 mph 88% 0.00 in 0 W/m2
06:56 22.5 °F 19.5 °F 29.59 in WNW 2.0 mph 3.0 mph 88% 0.00 in 0 W/m2
07:02 22.5 °F 19.5 °F 29.60 in WNW 2.0 mph 8.0 mph 88% 0.00 in 0 W/m2
07:08 22.4 °F 19.4 °F 29.60 in WNW 3.0 mph 8.0 mph 88% 0.00 in 0 W/m2
07:14 22.4 °F 19.1 °F 29.60 in WNW 4.0 mph 4.0 mph 87% 0.00 in 0 W/m2
07:20 22.3 °F 19.0 °F 29.60 in WNW 4.0 mph 4.0 mph 87% 0.00 in 0 W/m2
07:26 22.3 °F 19.0 °F 29.60 in West 4.0 mph 5.0 mph 87% 0.00 in 5 W/m2
07:32 22.3 °F 19.0 °F 29.61 in WNW 4.0 mph 4.0 mph 87% 0.00 in 7 W/m2
07:38 22.3 °F 19.0 °F 29.61 in WNW 4.0 mph 4.0 mph 87% 0.00 in 9 W/m2
07:44 22.3 °F 19.0 °F 29.61 in NW 3.0 mph 5.0 mph 87% 0.00 in 11 W/m2
07:50 22.3 °F 19.0 °F 29.61 in WNW 4.0 mph 4.0 mph 87% 0.00 in 12 W/m2
07:56 22.3 °F 19.0 °F 29.62 in West 3.0 mph 4.0 mph 87% 0.00 in 14 W/m2
08:03 22.3 °F 19.0 °F 29.62 in WNW 3.0 mph 3.0 mph 87% 0.00 in 16 W/m2
08:08 22.2 °F 19.2 °F 29.62 in WNW 3.0 mph 5.0 mph 88% 0.00 in 19 W/m2
08:14 22.2 °F 19.2 °F 29.62 in NW 3.0 mph 4.0 mph 88% 0.00 in 32 W/m2
08:20 22.2 °F 19.2 °F 29.62 in NW 2.0 mph 2.0 mph 88% 0.00 in 47 W/m2
08:22 22.2 °F 19.2 °F 29.63 in WNW 3.0 mph 4.0 mph 88% 0.00 in 46 W/m2
08:28 22.2 °F 19.2 °F 29.62 in SSW 4.0 mph 5.0 mph 88% 0.00 in 67 W/m2
08:34 22.3 °F 19.3 °F 29.63 in WNW 3.0 mph 4.0 mph 88% 0.00 in 63 W/m2
08:40 22.2 °F 19.2 °F 29.64 in NW 3.0 mph 6.0 mph 88% 0.00 in 60 W/m2
08:46 22.1 °F 19.1 °F 29.64 in West 5.0 mph 7.0 mph 88% 0.00 in 81 W/m2
08:52 22.2 °F 19.2 °F 29.64 in West 4.0 mph 5.0 mph 88% 0.00 in 102 W/m2
08:58 22.3 °F 19.3 °F 29.64 in WNW 4.0 mph 7.0 mph 88% 0.00 in 128 W/m2
09:04 22.4 °F 19.4 °F 29.64 in WNW 4.0 mph 4.0 mph 88% 0.00 in 121 W/m2
09:10 22.5 °F 19.5 °F 29.64 in WNW 3.0 mph 3.0 mph 88% 0.00 in 120 W/m2
09:16 22.6 °F 19.6 °F 29.65 in WNW 4.0 mph 7.0 mph 88% 0.00 in 105 W/m2
09:22 22.5 °F 19.5 °F 29.65 in NW 4.0 mph 4.0 mph 88% 0.00 in 90 W/m2
09:28 22.6 °F 19.6 °F 29.65 in West 3.0 mph 4.0 mph 88% 0.00 in 93 W/m2
09:34 22.6 °F 19.3 °F 29.65 in NW 3.0 mph 4.0 mph 87% 0.00 in 95 W/m2
09:40 22.5 °F 19.2 °F 29.65 in NW 4.0 mph 9.0 mph 87% 0.00 in 90 W/m2
09:46 22.4 °F 19.1 °F 29.65 in WNW 4.0 mph 9.0 mph 87% 0.00 in 100 W/m2
09:52 22.5 °F 19.2 °F 29.65 in WNW 4.0 mph 6.0 mph 87% 0.00 in 86 W/m2
09:58 22.3 °F 19.0 °F 29.65 in WNW 5.0 mph 6.0 mph 87% 0.00 in 97 W/m2
10:04 22.3 °F 19.0 °F 29.65 in WNW 4.0 mph 5.0 mph 87% 0.00 in 104 W/m2
10:10 22.3 °F 19.0 °F 29.65 in West 4.0 mph 4.0 mph 87% 0.00 in 104 W/m2
10:16 22.4 °F 19.1 °F 29.66 in WNW 4.0 mph 4.0 mph 87% 0.00 in 111 W/m2
10:22 22.4 °F 19.1 °F 29.66 in WNW 4.0 mph 4.0 mph 87% 0.00 in 121 W/m2
10:28 22.5 °F 19.2 °F 29.66 in West 3.0 mph 4.0 mph 87% 0.00 in 139 W/m2
10:34 22.6 °F 19.3 °F 29.67 in NW 3.0 mph 5.0 mph 87% 0.00 in 111 W/m2
10:40 22.5 °F 18.9 °F 29.67 in West 3.0 mph 4.0 mph 86% 0.00 in 105 W/m2
10:46 22.3 °F 18.7 °F 29.67 in NW 4.0 mph 7.0 mph 86% 0.00 in 123 W/m2
10:52 22.5 °F 18.9 °F 29.67 in WNW 4.0 mph 4.0 mph 86% 0.00 in 137 W/m2
10:58 22.5 °F 18.9 °F 29.67 in WNW 4.0 mph 7.0 mph 86% 0.00 in 148 W/m2
11:04 22.5 °F 18.9 °F 29.67 in WNW 4.0 mph 7.0 mph 86% 0.00 in 153 W/m2
11:10 22.4 °F 18.8 °F 29.68 in WNW 4.0 mph 4.0 mph 86% 0.00 in 130 W/m2
11:16 22.4 °F 18.8 °F 29.68 in West 4.0 mph 6.0 mph 86% 0.00 in 120 W/m2
11:22 22.4 °F 18.8 °F 29.68 in WNW 4.0 mph 5.0 mph 86% 0.00 in 130 W/m2
11:28 22.3 °F 18.5 °F 29.68 in West 4.0 mph 7.0 mph 85% 0.00 in 135 W/m2
11:34 22.3 °F 18.5 °F 29.68 in West 5.0 mph 5.0 mph 85% 0.00 in 134 W/m2
11:40 22.2 °F 18.4 °F 29.68 in NW 5.0 mph 5.0 mph 85% 0.00 in 128 W/m2
11:46 22.3 °F 18.5 °F 29.68 in WNW 4.0 mph 5.0 mph 85% 0.00 in 139 W/m2
11:52 22.3 °F 18.5 °F 29.68 in West 3.0 mph 4.0 mph 85% 0.00 in 137 W/m2
11:58 22.2 °F 18.4 °F 29.68 in NW 4.0 mph 5.0 mph 85% 0.00 in 134 W/m2
12:04 22.0 °F 18.2 °F 29.69 in NW 5.0 mph 8.0 mph 85% 0.00 in 134 W/m2
12:10 22.0 °F 18.2 °F 29.69 in NW 5.0 mph 5.0 mph 85% 0.00 in 151 W/m2
12:16 22.2 °F 18.4 °F 29.69 in NW 4.0 mph 6.0 mph 85% 0.00 in 207 W/m2
12:22 22.3 °F 18.2 °F 29.69 in NW 5.0 mph 6.0 mph 84% 0.00 in 339 W/m2
12:28 22.8 °F 19.0 °F 29.69 in WNW 6.0 mph 7.0 mph 85% 0.00 in 469 W/m2
12:34 24.1 °F 19.7 °F 29.69 in West 5.0 mph 6.0 mph 83% 0.00 in 573 W/m2
12:40 23.5 °F 18.8 °F 29.69 in NW 5.0 mph 5.0 mph 82% 0.00 in 283 W/m2
12:48 23.3 °F 18.9 °F 29.69 in WNW 4.0 mph 7.0 mph 83% 0.00 in 213 W/m2
12:54 22.9 °F 18.5 °F 29.69 in WNW 5.0 mph 7.0 mph 83% 0.00 in 185 W/m2
13:00 23.0 °F 18.6 °F 29.69 in West 5.0 mph 5.0 mph 83% 0.00 in 237 W/m2
13:06 22.9 °F 18.2 °F 29.69 in WSW 5.0 mph 8.0 mph 82% 0.00 in 183 W/m2
13:12 23.0 °F 18.3 °F 29.69 in WNW 6.0 mph 6.0 mph 82% 0.00 in 162 W/m2
13:18 22.9 °F 18.5 °F 29.69 in WNW 5.0 mph 7.0 mph 83% 0.00 in 174 W/m2
13:24 22.9 °F 18.5 °F 29.69 in WNW 4.0 mph 5.0 mph 83% 0.00 in 153 W/m2
13:30 22.9 °F 18.5 °F 29.70 in NW 4.0 mph 5.0 mph 83% 0.00 in 153 W/m2
13:36 22.9 °F 18.5 °F 29.70 in NW 5.0 mph 8.0 mph 83% 0.00 in 144 W/m2
13:42 23.1 °F 18.7 °F 29.70 in WNW 5.0 mph 5.0 mph 83% 0.00 in 163 W/m2
13:48 23.1 °F 18.7 °F 29.70 in NW 5.0 mph 5.0 mph 83% 0.00 in 167 W/m2
13:54 23.3 °F 18.9 °F 29.70 in West 4.0 mph 5.0 mph 83% 0.00 in 213 W/m2
14:00 23.6 °F 19.2 °F 29.70 in WNW 4.0 mph 4.0 mph 83% 0.00 in 239 W/m2
14:06 23.8 °F 19.7 °F 29.70 in West 3.0 mph 6.0 mph 84% 0.00 in 146 W/m2
14:12 23.6 °F 19.5 °F 29.70 in West 3.0 mph 3.0 mph 84% 0.00 in 121 W/m2
14:18 22.9 °F 18.8 °F 29.70 in West 4.0 mph 5.0 mph 84% 0.00 in 116 W/m2
14:24 22.8 °F 19.0 °F 29.70 in West 4.0 mph 6.0 mph 85% 0.00 in 127 W/m2
14:30 22.4 °F 18.6 °F 29.70 in WSW 5.0 mph 5.0 mph 85% 0.00 in 127 W/m2
14:36 22.3 °F 18.7 °F 29.70 in WSW 4.0 mph 5.0 mph 86% 0.00 in 111 W/m2
14:42 22.3 °F 18.5 °F 29.71 in West 4.0 mph 5.0 mph 85% 0.00 in 114 W/m2
14:48 22.2 °F 18.4 °F 29.72 in WNW 4.0 mph 5.0 mph 85% 0.00 in 125 W/m2
14:54 22.2 °F 18.4 °F 29.72 in WNW 4.0 mph 4.0 mph 85% 0.00 in 107 W/m2
15:00 22.3 °F 18.5 °F 29.72 in West 4.0 mph 5.0 mph 85% 0.00 in 120 W/m2
15:06 22.3 °F 18.7 °F 29.72 in West 3.0 mph 6.0 mph 86% 0.00 in 104 W/m2
15:12 22.3 °F 18.7 °F 29.72 in WNW 3.0 mph 4.0 mph 86% 0.00 in 104 W/m2
15:18 22.2 °F 18.7 °F 29.72 in West 4.0 mph 4.0 mph 86% 0.00 in 104 W/m2
15:24 22.3 °F 18.7 °F 29.72 in WSW 4.0 mph 6.0 mph 86% 0.00 in 105 W/m2
15:30 22.2 °F 18.7 °F 29.73 in West 4.0 mph 4.0 mph 86% 0.00 in 76 W/m2
15:36 22.2 °F 18.7 °F 29.73 in WNW 4.0 mph 4.0 mph 86% 0.00 in 69 W/m2
15:42 22.1 °F 18.6 °F 29.73 in WNW 4.0 mph 4.0 mph 86% 0.00 in 51 W/m2
15:48 22.1 °F 18.6 °F 29.73 in WSW 4.0 mph 4.0 mph 86% 0.00 in 54 W/m2
15:54 22.1 °F 18.6 °F 29.73 in NW 4.0 mph 8.0 mph 86% 0.00 in 62 W/m2
16:00 22.2 °F 18.7 °F 29.73 in West 5.0 mph 5.0 mph 86% 0.00 in 56 W/m2
16:06 22.2 °F 18.7 °F 29.73 in West 4.0 mph 5.0 mph 86% 0.00 in 47 W/m2
16:12 22.2 °F 18.7 °F 29.74 in West 4.0 mph 5.0 mph 86% 0.00 in 35 W/m2
16:18 22.2 °F 18.7 °F 29.74 in West 4.0 mph 5.0 mph 86% 0.00 in 32 W/m2
16:24 22.1 °F 18.6 °F 29.74 in WNW 4.0 mph 5.0 mph 86% 0.00 in 26 W/m2
16:30 22.0 °F 18.5 °F 29.74 in WSW 4.0 mph 4.0 mph 86% 0.00 in 26 W/m2
16:36 22.0 °F 18.5 °F 29.74 in WNW 5.0 mph 5.0 mph 86% 0.00 in 21 W/m2
16:42 22.0 °F 18.7 °F 29.74 in WNW 5.0 mph 5.0 mph 87% 0.00 in 19 W/m2
16:48 21.9 °F 18.4 °F 29.75 in West 4.0 mph 5.0 mph 86% 0.00 in 19 W/m2
16:54 21.9 °F 18.6 °F 29.75 in WSW 4.0 mph 4.0 mph 87% 0.00 in 14 W/m2
17:00 21.9 °F 18.6 °F 29.75 in West 3.0 mph 3.0 mph 87% 0.00 in 12 W/m2
17:06 21.9 °F 18.6 °F 29.75 in West 3.0 mph 5.0 mph 87% 0.00 in 9 W/m2
17:12 21.9 °F 18.6 °F 29.75 in West 3.0 mph 6.0 mph 87% 0.00 in 5 W/m2
17:18 22.0 °F 18.5 °F 29.76 in West 4.0 mph 6.0 mph 86% 0.00 in 5 W/m2
17:24 22.0 °F 18.5 °F 29.76 in WSW 4.0 mph 5.0 mph 86% 0.00 in 0 W/m2
17:30 22.0 °F 18.2 °F 29.77 in WNW 4.0 mph 4.0 mph 85% 0.00 in 0 W/m2
17:36 22.1 °F 18.6 °F 29.77 in NW 3.0 mph 4.0 mph 86% 0.00 in 0 W/m2
17:42 22.1 °F 18.6 °F 29.77 in West 3.0 mph 3.0 mph 86% 0.00 in 0 W/m2
17:48 22.2 °F 18.7 °F 29.77 in West 4.0 mph 6.0 mph 86% 0.00 in 0 W/m2
17:54 22.2 °F 18.7 °F 29.77 in West 3.0 mph 7.0 mph 86% 0.00 in 0 W/m2
18:00 22.1 °F 18.6 °F 29.78 in NW 3.0 mph 3.0 mph 86% 0.00 in 0 W/m2
18:06 22.1 °F 18.6 °F 29.78 in WNW 3.0 mph 4.0 mph 86% 0.00 in 0 W/m2
18:12 22.1 °F 18.6 °F 29.78 in SSW 3.0 mph 6.0 mph 86% 0.00 in 0 W/m2
18:18 22.1 °F 18.6 °F 29.78 in WNW 3.0 mph 6.0 mph 86% 0.00 in 0 W/m2
18:24 22.1 °F 18.6 °F 29.79 in West 3.0 mph 4.0 mph 86% 0.00 in 0 W/m2
18:30 22.1 °F 18.6 °F 29.79 in WNW 3.0 mph 3.0 mph 86% 0.00 in 0 W/m2
18:36 22.1 °F 18.6 °F 29.79 in WNW 3.0 mph 3.0 mph 86% 0.00 in 0 W/m2
18:42 22.1 °F 18.6 °F 29.80 in WSW 3.0 mph 4.0 mph 86% 0.00 in 0 W/m2
18:48 22.2 °F 18.7 °F 29.80 in SSW 3.0 mph 4.0 mph 86% 0.00 in 0 W/m2
18:54 22.2 °F 18.7 °F 29.80 in WSW 3.0 mph 3.0 mph 86% 0.00 in 0 W/m2
19:00 22.2 °F 18.7 °F 29.80 in WSW 3.0 mph 3.0 mph 86% 0.00 in 0 W/m2
19:06 22.3 °F 18.7 °F 29.80 in West 3.0 mph 4.0 mph 86% 0.00 in 0 W/m2
19:12 22.4 °F 18.8 °F 29.80 in WSW 3.0 mph 3.0 mph 86% 0.00 in 0 W/m2
19:18 22.4 °F 18.8 °F 29.80 in WSW 3.0 mph 4.0 mph 86% 0.00 in 0 W/m2
19:24 22.5 °F 18.7 °F 29.80 in West 3.0 mph 5.0 mph 85% 0.00 in 0 W/m2
19:30 22.6 °F 18.8 °F 29.80 in SW 3.0 mph 3.0 mph 85% 0.00 in 0 W/m2
19:36 22.7 °F 18.9 °F 29.80 in WSW 3.0 mph 7.0 mph 85% 0.00 in 0 W/m2
19:42 22.7 °F 18.6 °F 29.80 in WSW 3.0 mph 3.0 mph 84% 0.00 in 0 W/m2
19:48 22.8 °F 19.0 °F 29.80 in SW 3.0 mph 6.0 mph 85% 0.00 in 0 W/m2
19:54 22.8 °F 19.0 °F 29.80 in WSW 3.0 mph 5.0 mph 85% 0.00 in 0 W/m2
20:00 22.8 °F 19.0 °F 29.80 in WSW 3.0 mph 5.0 mph 85% 0.00 in 0 W/m2
20:06 22.8 °F 19.0 °F 29.81 in WSW 3.0 mph 5.0 mph 85% 0.00 in 0 W/m2
20:12 22.8 °F 19.0 °F 29.81 in West 3.0 mph 7.0 mph 85% 0.00 in 0 W/m2
20:18 22.9 °F 19.1 °F 29.81 in WSW 3.0 mph 7.0 mph 85% 0.00 in 0 W/m2
20:24 23.0 °F 19.2 °F 29.81 in West 2.0 mph 4.0 mph 85% 0.00 in 0 W/m2
20:30 23.1 °F 19.3 °F 29.81 in WSW 3.0 mph 5.0 mph 85% 0.00 in 0 W/m2
20:36 23.1 °F 19.3 °F 29.81 in SW 3.0 mph 5.0 mph 85% 0.00 in 0 W/m2
20:42 23.3 °F 19.5 °F 29.81 in West 3.0 mph 6.0 mph 85% 0.00 in 0 W/m2
20:48 23.4 °F 19.3 °F 29.82 in West 3.0 mph 6.0 mph 84% 0.00 in 0 W/m2
20:54 23.3 °F 19.2 °F 29.82 in West 2.0 mph 3.0 mph 84% 0.00 in 0 W/m2
21:00 23.4 °F 19.3 °F 29.82 in West 2.0 mph 2.0 mph 84% 0.00 in 0 W/m2
21:06 23.5 °F 19.4 °F 29.83 in West 2.0 mph 3.0 mph 84% 0.00 in 0 W/m2
21:12 23.5 °F 19.4 °F 29.83 in WNW 2.0 mph 4.0 mph 84% 0.00 in 0 W/m2
21:18 23.6 °F 19.5 °F 29.83 in West 2.0 mph 4.0 mph 84% 0.00 in 0 W/m2
21:24 23.6 °F 19.5 °F 29.83 in West 2.0 mph 2.0 mph 84% 0.00 in 0 W/m2
21:32 23.7 °F 19.6 °F 29.83 in WSW 2.0 mph 2.0 mph 84% 0.00 in 0 W/m2
21:38 23.8 °F 19.7 °F 29.83 in West 2.0 mph 2.0 mph 84% 0.00 in 0 W/m2
21:44 24.5 °F 19.8 °F 29.83 in WNW 3.0 mph 5.0 mph 82% 0.00 in 0 W/m2
21:50 25.1 °F 19.8 °F 29.83 in WSW 3.0 mph 7.0 mph 80% 0.00 in 0 W/m2
21:56 25.4 °F 19.5 °F 29.83 in WNW 3.0 mph 7.0 mph 78% 0.00 in 0 W/m2
22:02 25.5 °F 19.3 °F 29.83 in WNW 4.0 mph 7.0 mph 77% 0.00 in 0 W/m2
22:08 25.6 °F 19.4 °F 29.83 in NW 5.0 mph 7.0 mph 77% 0.00 in 0 W/m2
22:14 25.6 °F 19.4 °F 29.83 in WNW 5.0 mph 5.0 mph 77% 0.00 in 0 W/m2
22:20 25.5 °F 19.3 °F 29.83 in WNW 4.0 mph 4.0 mph 77% 0.00 in 0 W/m2
22:26 25.4 °F 19.2 °F 29.83 in WNW 3.0 mph 4.0 mph 77% 0.00 in 0 W/m2
22:32 25.4 °F 19.2 °F 29.83 in WNW 3.0 mph 4.0 mph 77% 0.00 in 0 W/m2
22:38 25.4 °F 19.2 °F 29.83 in WNW 4.0 mph 8.0 mph 77% 0.00 in 0 W/m2
22:44 25.4 °F 18.9 °F 29.83 in WNW 3.0 mph 4.0 mph 76% 0.00 in 0 W/m2
22:50 25.4 °F 18.9 °F 29.83 in WNW 4.0 mph 6.0 mph 76% 0.00 in 0 W/m2
22:56 25.4 °F 18.9 °F 29.83 in NW 4.0 mph 6.0 mph 76% 0.00 in 0 W/m2
23:02 25.3 °F 18.8 °F 29.83 in WNW 4.0 mph 9.0 mph 76% 0.00 in 0 W/m2
23:08 25.3 °F 18.8 °F 29.83 in WSW 5.0 mph 9.0 mph 76% 0.00 in 0 W/m2
23:14 25.3 °F 18.8 °F 29.83 in WNW 5.0 mph 7.0 mph 76% 0.00 in 0 W/m2
23:20 25.3 °F 18.8 °F 29.83 in WNW 5.0 mph 7.0 mph 76% 0.00 in 0 W/m2
23:26 25.3 °F 18.8 °F 29.83 in NW 4.0 mph 7.0 mph 76% 0.00 in 0 W/m2
23:32 25.2 °F 18.7 °F 29.83 in WNW 4.0 mph 4.0 mph 76% 0.00 in 0 W/m2
23:38 25.2 °F 18.7 °F 29.83 in WNW 4.0 mph 7.0 mph 76% 0.00 in 0 W/m2
23:44 25.2 °F 18.7 °F 29.84 in West 4.0 mph 8.0 mph 76% 0.00 in 0 W/m2
23:50 25.1 °F 18.6 °F 29.84 in NW 4.0 mph 4.0 mph 76% 0.00 in 0 W/m2
23:56 25.1 °F 18.6 °F 29.84 in WNW 4.0 mph 6.0 mph 76% 0.00 in 0 W/m2
Country Meadow, Clay, NY, USA
Compliments of Weather Underground - 2 mb